Meadow Lake, Alaska
Current Conditions -  °F | °C
As of 4:36 PM on Thursday 18 Dec 2014 (Local Time) from PAWS Reporting Station
Clear Clear  
Wind Chill: -8°   Ceiling: Unl
Heat Index: -8°   Visibility: 10mi
Dew Point: -13°   Wind: 3mph
Humidity: 68%   Direction: 50°NE
Pressure: 29.34"   Gusts: NA
Location:  61.5841°N, 149.443°W
Report Text: PAWS 190136Z AUTO 05003KT 10SM CLR M08/M13 A2934 RMK AO1
Loading
Personal Weather Stations






























Interactive Weather Map New forecast layout! Learn more

10-Day Weather Forecast

Advertisements
Track Severe Weather on mobile